sensor_id;sensor_type;location;lat;lon;timestamp;P1;durP1;ratioP1;P2;durP2;ratioP2
30370;SDS011;17164;48.590;11.410;2023-04-24T00:01:39;3.13;;;2.00;;
30370;SDS011;17164;48.590;11.410;2023-04-24T00:04:05;3.90;;;2.00;;
30370;SDS011;17164;48.590;11.410;2023-04-24T00:06:32;2.23;;;1.40;;
30370;SDS011;17164;48.590;11.410;2023-04-24T00:09:01;2.00;;;1.53;;
30370;SDS011;17164;48.590;11.410;2023-04-24T00:11:28;3.37;;;1.70;;
30370;SDS011;17164;48.590;11.410;2023-04-24T00:13:54;2.63;;;1.50;;
30370;SDS011;17164;48.590;11.410;2023-04-24T00:16:21;2.27;;;1.60;;
30370;SDS011;17164;48.590;11.410;2023-04-24T00:18:47;2.57;;;1.77;;
30370;SDS011;17164;48.590;11.410;2023-04-24T00:21:13;2.73;;;1.70;;
30370;SDS011;17164;48.590;11.410;2023-04-24T00:23:42;2.57;;;1.30;;
30370;SDS011;17164;48.590;11.410;2023-04-24T00:26:08;3.97;;;1.30;;
30370;SDS011;17164;48.590;11.410;2023-04-24T00:28:34;1.90;;;1.20;;
30370;SDS011;17164;48.590;11.410;2023-04-24T00:31:00;2.70;;;1.50;;
30370;SDS011;17164;48.590;11.410;2023-04-24T00:33:26;3.03;;;1.33;;
30370;SDS011;17164;48.590;11.410;2023-04-24T00:35:51;2.47;;;1.40;;
30370;SDS011;17164;48.590;11.410;2023-04-24T00:38:17;2.50;;;1.50;;
30370;SDS011;17164;48.590;11.410;2023-04-24T00:40:43;2.90;;;1.30;;
30370;SDS011;17164;48.590;11.410;2023-04-24T00:43:08;2.23;;;1.23;;
30370;SDS011;17164;48.590;11.410;2023-04-24T00:45:34;2.53;;;1.60;;
30370;SDS011;17164;48.590;11.410;2023-04-24T00:48:01;1.43;;;1.23;;
30370;SDS011;17164;48.590;11.410;2023-04-24T00:50:27;2.77;;;1.40;;
30370;SDS011;17164;48.590;11.410;2023-04-24T00:52:53;2.80;;;1.40;;
30370;SDS011;17164;48.590;11.410;2023-04-24T00:55:19;1.40;;;1.10;;
30370;SDS011;17164;48.590;11.410;2023-04-24T00:57:45;2.47;;;1.30;;
30370;SDS011;17164;48.590;11.410;2023-04-24T01:00:12;2.20;;;1.30;;
30370;SDS011;17164;48.590;11.410;2023-04-24T01:02:39;2.80;;;1.70;;
30370;SDS011;17164;48.590;11.410;2023-04-24T01:05:08;1.87;;;1.30;;
30370;SDS011;17164;48.590;11.410;2023-04-24T01:07:34;3.30;;;1.30;;
30370;SDS011;17164;48.590;11.410;2023-04-24T01:10:01;4.20;;;1.40;;
30370;SDS011;17164;48.590;11.410;2023-04-24T01:12:27;2.47;;;1.20;;
30370;SDS011;17164;48.590;11.410;2023-04-24T01:14:53;2.63;;;1.10;;
30370;SDS011;17164;48.590;11.410;2023-04-24T01:17:20;2.23;;;1.23;;
30370;SDS011;17164;48.590;11.410;2023-04-24T01:19:46;3.23;;;1.40;;
30370;SDS011;17164;48.590;11.410;2023-04-24T01:22:12;1.70;;;1.10;;
30370;SDS011;17164;48.590;11.410;2023-04-24T01:24:42;2.77;;;1.27;;
30370;SDS011;17164;48.590;11.410;2023-04-24T01:27:08;2.80;;;1.60;;
30370;SDS011;17164;48.590;11.410;2023-04-24T01:29:35;2.07;;;1.13;;
30370;SDS011;17164;48.590;11.410;2023-04-24T01:32:01;3.13;;;1.40;;
30370;SDS011;17164;48.590;11.410;2023-04-24T01:34:28;2.87;;;1.20;;
30370;SDS011;17164;48.590;11.410;2023-04-24T01:36:54;2.90;;;1.13;;
30370;SDS011;17164;48.590;11.410;2023-04-24T01:39:21;2.07;;;1.10;;
30370;SDS011;17164;48.590;11.410;2023-04-24T01:41:48;1.33;;;0.90;;
30370;SDS011;17164;48.590;11.410;2023-04-24T01:44:15;2.10;;;1.00;;
30370;SDS011;17164;48.590;11.410;2023-04-24T01:46:41;1.07;;;0.97;;
30370;SDS011;17164;48.590;11.410;2023-04-24T01:49:06;2.67;;;1.03;;
30370;SDS011;17164;48.590;11.410;2023-04-24T01:51:32;1.30;;;0.80;;
30370;SDS011;17164;48.590;11.410;2023-04-24T01:53:58;1.57;;;0.90;;
30370;SDS011;17164;48.590;11.410;2023-04-24T01:56:23;1.37;;;0.80;;
30370;SDS011;17164;48.590;11.410;2023-04-24T01:58:50;0.93;;;0.80;;
30370;SDS011;17164;48.590;11.410;2023-04-24T02:01:19;2.17;;;1.00;;
30370;SDS011;17164;48.590;11.410;2023-04-24T02:03:45;1.50;;;0.67;;
30370;SDS011;17164;48.590;11.410;2023-04-24T02:06:11;1.03;;;0.70;;
30370;SDS011;17164;48.590;11.410;2023-04-24T02:08:37;0.93;;;0.87;;
30370;SDS011;17164;48.590;11.410;2023-04-24T02:11:02;1.77;;;0.77;;
30370;SDS011;17164;48.590;11.410;2023-04-24T02:13:28;1.70;;;1.00;;
30370;SDS011;17164;48.590;11.410;2023-04-24T02:15:54;0.93;;;0.80;;
30370;SDS011;17164;48.590;11.410;2023-04-24T02:18:19;3.93;;;0.80;;
30370;SDS011;17164;48.590;11.410;2023-04-24T02:20:45;0.83;;;0.70;;
30370;SDS011;17164;48.590;11.410;2023-04-24T02:23:11;1.37;;;0.80;;
30370;SDS011;17164;48.590;11.410;2023-04-24T02:25:38;0.93;;;0.70;;
30370;SDS011;17164;48.590;11.410;2023-04-24T02:28:03;3.47;;;0.70;;
30370;SDS011;17164;48.590;11.410;2023-04-24T02:30:29;1.13;;;0.87;;
30370;SDS011;17164;48.590;11.410;2023-04-24T02:32:55;1.13;;;0.70;;
30370;SDS011;17164;48.590;11.410;2023-04-24T02:35:21;1.90;;;1.03;;
30370;SDS011;17164;48.590;11.410;2023-04-24T02:37:46;1.40;;;0.97;;
30370;SDS011;17164;48.590;11.410;2023-04-24T02:40:12;2.03;;;1.00;;
30370;SDS011;17164;48.590;11.410;2023-04-24T02:42:38;0.83;;;0.83;;
30370;SDS011;17164;48.590;11.410;2023-04-24T02:45:03;0.80;;;0.73;;
30370;SDS011;17164;48.590;11.410;2023-04-24T02:47:30;1.00;;;0.77;;
30370;SDS011;17164;48.590;11.410;2023-04-24T02:49:55;3.30;;;0.80;;
30370;SDS011;17164;48.590;11.410;2023-04-24T02:52:21;0.93;;;0.70;;
30370;SDS011;17164;48.590;11.410;2023-04-24T02:54:46;1.80;;;1.13;;
30370;SDS011;17164;48.590;11.410;2023-04-24T02:57:12;4.70;;;1.23;;
30370;SDS011;17164;48.590;11.410;2023-04-24T02:59:38;3.17;;;1.00;;
30370;SDS011;17164;48.590;11.410;2023-04-24T03:02:03;1.03;;;0.70;;
30370;SDS011;17164;48.590;11.410;2023-04-24T03:04:29;1.97;;;0.97;;
30370;SDS011;17164;48.590;11.410;2023-04-24T03:06:54;1.40;;;0.80;;
30370;SDS011;17164;48.590;11.410;2023-04-24T03:09:20;7.73;;;1.30;;
30370;SDS011;17164;48.590;11.410;2023-04-24T03:11:46;2.70;;;0.80;;
30370;SDS011;17164;48.590;11.410;2023-04-24T03:14:13;1.00;;;0.87;;
30370;SDS011;17164;48.590;11.410;2023-04-24T03:16:39;2.77;;;1.20;;
30370;SDS011;17164;48.590;11.410;2023-04-24T03:19:04;3.03;;;1.23;;
30370;SDS011;17164;48.590;11.410;2023-04-24T03:21:30;4.20;;;1.53;;
30370;SDS011;17164;48.590;11.410;2023-04-24T03:23:56;2.37;;;0.90;;
30370;SDS011;17164;48.590;11.410;2023-04-24T03:26:21;2.73;;;1.00;;
30370;SDS011;17164;48.590;11.410;2023-04-24T03:28:47;2.63;;;0.97;;
30370;SDS011;17164;48.590;11.410;2023-04-24T03:31:12;1.17;;;0.63;;
30370;SDS011;17164;48.590;11.410;2023-04-24T03:33:38;2.57;;;0.80;;
30370;SDS011;17164;48.590;11.410;2023-04-24T03:36:03;1.93;;;1.20;;
30370;SDS011;17164;48.590;11.410;2023-04-24T03:38:30;1.43;;;0.90;;
30370;SDS011;17164;48.590;11.410;2023-04-24T03:40:55;1.30;;;0.87;;
30370;SDS011;17164;48.590;11.410;2023-04-24T03:43:21;1.40;;;0.80;;
30370;SDS011;17164;48.590;11.410;2023-04-24T03:45:46;0.97;;;0.80;;
30370;SDS011;17164;48.590;11.410;2023-04-24T03:48:12;4.00;;;1.27;;
30370;SDS011;17164;48.590;11.410;2023-04-24T03:50:38;1.67;;;0.80;;
30370;SDS011;17164;48.590;11.410;2023-04-24T03:53:03;1.13;;;1.00;;
30370;SDS011;17164;48.590;11.410;2023-04-24T03:55:29;2.17;;;0.87;;
30370;SDS011;17164;48.590;11.410;2023-04-24T03:57:54;3.50;;;0.70;;
30370;SDS011;17164;48.590;11.410;2023-04-24T04:00:20;0.93;;;0.70;;
30370;SDS011;17164;48.590;11.410;2023-04-24T04:02:46;3.20;;;1.40;;
30370;SDS011;17164;48.590;11.410;2023-04-24T04:05:11;2.63;;;0.93;;
30370;SDS011;17164;48.590;11.410;2023-04-24T04:07:37;2.03;;;1.17;;
30370;SDS011;17164;48.590;11.410;2023-04-24T04:10:03;1.00;;;0.80;;
30370;SDS011;17164;48.590;11.410;2023-04-24T04:12:29;2.00;;;1.00;;
30370;SDS011;17164;48.590;11.410;2023-04-24T04:14:55;1.30;;;0.90;;
30370;SDS011;17164;48.590;11.410;2023-04-24T04:17:20;1.10;;;1.00;;
30370;SDS011;17164;48.590;11.410;2023-04-24T04:19:46;2.13;;;1.00;;
30370;SDS011;17164;48.590;11.410;2023-04-24T04:22:11;1.53;;;1.00;;
30370;SDS011;17164;48.590;11.410;2023-04-24T04:24:37;1.77;;;1.10;;
30370;SDS011;17164;48.590;11.410;2023-04-24T04:27:05;6.53;;;0.97;;
30370;SDS011;17164;48.590;11.410;2023-04-24T04:29:33;1.83;;;1.23;;
30370;SDS011;17164;48.590;11.410;2023-04-24T04:31:59;1.13;;;0.87;;
30370;SDS011;17164;48.590;11.410;2023-04-24T04:34:26;0.80;;;0.80;;
30370;SDS011;17164;48.590;11.410;2023-04-24T04:36:51;1.77;;;0.83;;
30370;SDS011;17164;48.590;11.410;2023-04-24T04:39:17;1.43;;;0.93;;
30370;SDS011;17164;48.590;11.410;2023-04-24T04:41:43;3.97;;;1.00;;
30370;SDS011;17164;48.590;11.410;2023-04-24T04:44:11;1.40;;;0.80;;
30370;SDS011;17164;48.590;11.410;2023-04-24T04:46:37;1.60;;;0.93;;
30370;SDS011;17164;48.590;11.410;2023-04-24T04:49:03;1.60;;;1.07;;
30370;SDS011;17164;48.590;11.410;2023-04-24T04:51:29;2.00;;;0.90;;
30370;SDS011;17164;48.590;11.410;2023-04-24T04:53:56;0.80;;;0.80;;
30370;SDS011;17164;48.590;11.410;2023-04-24T04:56:21;1.43;;;0.97;;
30370;SDS011;17164;48.590;11.410;2023-04-24T04:58:47;2.77;;;1.00;;
30370;SDS011;17164;48.590;11.410;2023-04-24T05:01:12;1.30;;;0.90;;
30370;SDS011;17164;48.590;11.410;2023-04-24T05:03:38;2.30;;;1.10;;
30370;SDS011;17164;48.590;11.410;2023-04-24T05:06:04;0.93;;;0.80;;
30370;SDS011;17164;48.590;11.410;2023-04-24T05:08:30;2.40;;;0.70;;
30370;SDS011;17164;48.590;11.410;2023-04-24T05:10:56;2.83;;;1.30;;
30370;SDS011;17164;48.590;11.410;2023-04-24T05:13:21;1.70;;;1.00;;
30370;SDS011;17164;48.590;11.410;2023-04-24T05:15:47;1.93;;;1.20;;
30370;SDS011;17164;48.590;11.410;2023-04-24T05:18:13;1.23;;;0.90;;
30370;SDS011;17164;48.590;11.410;2023-04-24T05:20:38;2.03;;;0.83;;
30370;SDS011;17164;48.590;11.410;2023-04-24T05:23:04;1.73;;;1.03;;
30370;SDS011;17164;48.590;11.410;2023-04-24T05:25:30;2.80;;;1.20;;
30370;SDS011;17164;48.590;11.410;2023-04-24T05:28:00;2.63;;;0.80;;
30370;SDS011;17164;48.590;11.410;2023-04-24T05:30:26;3.00;;;1.00;;
30370;SDS011;17164;48.590;11.410;2023-04-24T05:32:51;1.73;;;0.87;;
30370;SDS011;17164;48.590;11.410;2023-04-24T05:35:17;2.43;;;0.83;;
30370;SDS011;17164;48.590;11.410;2023-04-24T05:37:43;1.80;;;1.00;;
30370;SDS011;17164;48.590;11.410;2023-04-24T05:40:09;2.40;;;1.10;;
30370;SDS011;17164;48.590;11.410;2023-04-24T05:42:36;2.63;;;1.00;;
30370;SDS011;17164;48.590;11.410;2023-04-24T05:45:01;2.70;;;1.53;;
30370;SDS011;17164;48.590;11.410;2023-04-24T05:47:27;1.53;;;1.00;;
30370;SDS011;17164;48.590;11.410;2023-04-24T05:49:53;1.33;;;0.77;;
30370;SDS011;17164;48.590;11.410;2023-04-24T05:52:19;1.83;;;0.80;;
30370;SDS011;17164;48.590;11.410;2023-04-24T05:54:44;2.00;;;0.80;;
30370;SDS011;17164;48.590;11.410;2023-04-24T05:57:10;4.30;;;0.97;;
30370;SDS011;17164;48.590;11.410;2023-04-24T05:59:36;0.97;;;0.90;;
30370;SDS011;17164;48.590;11.410;2023-04-24T06:02:03;1.83;;;0.90;;
30370;SDS011;17164;48.590;11.410;2023-04-24T06:04:29;2.13;;;0.80;;
30370;SDS011;17164;48.590;11.410;2023-04-24T06:06:54;1.47;;;0.87;;
30370;SDS011;17164;48.590;11.410;2023-04-24T06:09:23;1.47;;;0.77;;
30370;SDS011;17164;48.590;11.410;2023-04-24T06:11:49;3.23;;;1.00;;
30370;SDS011;17164;48.590;11.410;2023-04-24T06:14:17;4.43;;;1.13;;
30370;SDS011;17164;48.590;11.410;2023-04-24T06:16:43;1.53;;;0.80;;
30370;SDS011;17164;48.590;11.410;2023-04-24T06:19:09;1.97;;;1.00;;
30370;SDS011;17164;48.590;11.410;2023-04-24T06:21:34;2.53;;;0.77;;
30370;SDS011;17164;48.590;11.410;2023-04-24T06:24:00;2.93;;;1.17;;
30370;SDS011;17164;48.590;11.410;2023-04-24T06:26:26;1.83;;;0.80;;
30370;SDS011;17164;48.590;11.410;2023-04-24T06:28:51;0.80;;;0.70;;
30370;SDS011;17164;48.590;11.410;2023-04-24T06:31:19;2.73;;;0.77;;
30370;SDS011;17164;48.590;11.410;2023-04-24T06:33:45;1.43;;;0.70;;
30370;SDS011;17164;48.590;11.410;2023-04-24T06:36:11;1.10;;;0.70;;
30370;SDS011;17164;48.590;11.410;2023-04-24T06:38:37;2.83;;;0.73;;
30370;SDS011;17164;48.590;11.410;2023-04-24T06:41:02;1.87;;;0.60;;
30370;SDS011;17164;48.590;11.410;2023-04-24T06:43:30;0.80;;;0.60;;
30370;SDS011;17164;48.590;11.410;2023-04-24T06:45:57;4.10;;;0.90;;
30370;SDS011;17164;48.590;11.410;2023-04-24T06:48:23;1.07;;;0.80;;
30370;SDS011;17164;48.590;11.410;2023-04-24T06:50:50;2.37;;;0.67;;
30370;SDS011;17164;48.590;11.410;2023-04-24T06:53:15;1.87;;;0.70;;
30370;SDS011;17164;48.590;11.410;2023-04-24T06:55:41;2.50;;;0.73;;
30370;SDS011;17164;48.590;11.410;2023-04-24T06:58:08;4.03;;;0.60;;
30370;SDS011;17164;48.590;11.410;2023-04-24T07:00:34;3.47;;;0.70;;
30370;SDS011;17164;48.590;11.410;2023-04-24T07:03:00;1.03;;;0.50;;
30370;SDS011;17164;48.590;11.410;2023-04-24T07:05:25;2.97;;;0.60;;
30370;SDS011;17164;48.590;11.410;2023-04-24T07:07:51;0.83;;;0.60;;
30370;SDS011;17164;48.590;11.410;2023-04-24T07:10:17;1.00;;;0.60;;
30370;SDS011;17164;48.590;11.410;2023-04-24T07:12:43;0.50;;;0.50;;
30370;SDS011;17164;48.590;11.410;2023-04-24T07:15:08;2.53;;;0.73;;
30370;SDS011;17164;48.590;11.410;2023-04-24T07:17:35;0.90;;;0.60;;
30370;SDS011;17164;48.590;11.410;2023-04-24T07:20:03;1.60;;;0.70;;
30370;SDS011;17164;48.590;11.410;2023-04-24T07:22:29;3.80;;;0.67;;
30370;SDS011;17164;48.590;11.410;2023-04-24T07:24:55;1.50;;;0.50;;
30370;SDS011;17164;48.590;11.410;2023-04-24T07:27:20;4.73;;;1.00;;
30370;SDS011;17164;48.590;11.410;2023-04-24T07:29:46;2.03;;;0.60;;
30370;SDS011;17164;48.590;11.410;2023-04-24T07:32:12;1.33;;;0.63;;
30370;SDS011;17164;48.590;11.410;2023-04-24T07:34:37;1.07;;;0.60;;
30370;SDS011;17164;48.590;11.410;2023-04-24T07:37:03;1.90;;;0.40;;
30370;SDS011;17164;48.590;11.410;2023-04-24T07:39:29;2.30;;;0.73;;
30370;SDS011;17164;48.590;11.410;2023-04-24T07:41:54;1.47;;;0.90;;
30370;SDS011;17164;48.590;11.410;2023-04-24T07:44:20;1.20;;;0.80;;
30370;SDS011;17164;48.590;11.410;2023-04-24T07:46:45;1.60;;;0.80;;
30370;SDS011;17164;48.590;11.410;2023-04-24T07:49:12;2.67;;;0.93;;
30370;SDS011;17164;48.590;11.410;2023-04-24T07:51:37;2.60;;;0.70;;
30370;SDS011;17164;48.590;11.410;2023-04-24T07:54:04;1.47;;;0.73;;
30370;SDS011;17164;48.590;11.410;2023-04-24T07:56:33;2.30;;;0.70;;
30370;SDS011;17164;48.590;11.410;2023-04-24T07:58:59;0.93;;;0.63;;
30370;SDS011;17164;48.590;11.410;2023-04-24T08:01:26;1.20;;;0.90;;
30370;SDS011;17164;48.590;11.410;2023-04-24T08:03:52;0.90;;;0.70;;
30370;SDS011;17164;48.590;11.410;2023-04-24T08:06:17;1.93;;;1.10;;
30370;SDS011;17164;48.590;11.410;2023-04-24T08:08:43;1.27;;;0.73;;
30370;SDS011;17164;48.590;11.410;2023-04-24T08:11:09;2.00;;;0.87;;
30370;SDS011;17164;48.590;11.410;2023-04-24T08:13:34;1.77;;;1.10;;
30370;SDS011;17164;48.590;11.410;2023-04-24T08:16:00;3.17;;;0.90;;
30370;SDS011;17164;48.590;11.410;2023-04-24T08:18:26;2.23;;;1.03;;
30370;SDS011;17164;48.590;11.410;2023-04-24T08:20:52;1.57;;;0.80;;
30370;SDS011;17164;48.590;11.410;2023-04-24T08:23:17;1.97;;;0.97;;
30370;SDS011;17164;48.590;11.410;2023-04-24T08:25:43;1.03;;;0.90;;
30370;SDS011;17164;48.590;11.410;2023-04-24T08:28:09;1.73;;;0.93;;
30370;SDS011;17164;48.590;11.410;2023-04-24T08:30:35;1.87;;;1.23;;
30370;SDS011;17164;48.590;11.410;2023-04-24T08:33:01;1.77;;;0.93;;
30370;SDS011;17164;48.590;11.410;2023-04-24T08:35:27;1.10;;;0.93;;
30370;SDS011;17164;48.590;11.410;2023-04-24T08:37:53;1.40;;;0.97;;
30370;SDS011;17164;48.590;11.410;2023-04-24T08:40:18;1.30;;;0.93;;
30370;SDS011;17164;48.590;11.410;2023-04-24T08:42:51;1.60;;;1.00;;
30370;SDS011;17164;48.590;11.410;2023-04-24T08:45:21;1.37;;;1.27;;
30370;SDS011;17164;48.590;11.410;2023-04-24T08:47:47;3.23;;;1.83;;
30370;SDS011;17164;48.590;11.410;2023-04-24T08:50:14;1.23;;;0.80;;
30370;SDS011;17164;48.590;11.410;2023-04-24T08:52:41;3.50;;;1.20;;
30370;SDS011;17164;48.590;11.410;2023-04-24T08:55:07;3.13;;;1.10;;
30370;SDS011;17164;48.590;11.410;2023-04-24T08:57:33;1.77;;;1.20;;
30370;SDS011;17164;48.590;11.410;2023-04-24T09:00:00;2.00;;;1.30;;
30370;SDS011;17164;48.590;11.410;2023-04-24T09:02:26;2.83;;;1.23;;
30370;SDS011;17164;48.590;11.410;2023-04-24T09:04:53;2.73;;;1.20;;
30370;SDS011;17164;48.590;11.410;2023-04-24T09:07:22;2.70;;;1.30;;
30370;SDS011;17164;48.590;11.410;2023-04-24T09:09:50;2.10;;;1.17;;
30370;SDS011;17164;48.590;11.410;2023-04-24T09:12:17;2.50;;;1.13;;
30370;SDS011;17164;48.590;11.410;2023-04-24T09:14:44;1.53;;;1.20;;
30370;SDS011;17164;48.590;11.410;2023-04-24T09:17:11;2.20;;;1.00;;
30370;SDS011;17164;48.590;11.410;2023-04-24T09:19:37;2.60;;;1.03;;
30370;SDS011;17164;48.590;11.410;2023-04-24T09:22:05;1.53;;;0.90;;
30370;SDS011;17164;48.590;11.410;2023-04-24T09:24:33;1.60;;;1.00;;
30370;SDS011;17164;48.590;11.410;2023-04-24T09:27:00;2.83;;;1.00;;
30370;SDS011;17164;48.590;11.410;2023-04-24T09:29:28;1.97;;;1.00;;
30370;SDS011;17164;48.590;11.410;2023-04-24T09:31:55;2.07;;;1.20;;
30370;SDS011;17164;48.590;11.410;2023-04-24T09:34:25;1.83;;;1.00;;
30370;SDS011;17164;48.590;11.410;2023-04-24T09:36:52;1.37;;;1.00;;
30370;SDS011;17164;48.590;11.410;2023-04-24T09:39:18;2.10;;;0.90;;
30370;SDS011;17164;48.590;11.410;2023-04-24T09:41:56;1.43;;;1.03;;
30370;SDS011;17164;48.590;11.410;2023-04-24T09:44:24;2.10;;;1.20;;
30370;SDS011;17164;48.590;11.410;2023-04-24T09:47:00;1.97;;;0.80;;
30370;SDS011;17164;48.590;11.410;2023-04-24T09:49:26;1.10;;;0.80;;
30370;SDS011;17164;48.590;11.410;2023-04-24T09:52:26;2.13;;;1.00;;
30370;SDS011;17164;48.590;11.410;2023-04-24T09:54:45;1.90;;;0.83;;
30370;SDS011;17164;48.590;11.410;2023-04-24T09:57:18;1.00;;;0.80;;
30370;SDS011;17164;48.590;11.410;2023-04-24T09:59:45;2.50;;;0.90;;
30370;SDS011;17164;48.590;11.410;2023-04-24T10:02:17;2.17;;;1.00;;
30370;SDS011;17164;48.590;11.410;2023-04-24T10:04:53;3.60;;;1.20;;
30370;SDS011;17164;48.590;11.410;2023-04-24T10:07:20;1.97;;;0.80;;
30370;SDS011;17164;48.590;11.410;2023-04-24T10:09:46;2.83;;;1.03;;
30370;SDS011;17164;48.590;11.410;2023-04-24T10:12:12;2.27;;;1.20;;
30370;SDS011;17164;48.590;11.410;2023-04-24T10:14:39;1.73;;;1.10;;
30370;SDS011;17164;48.590;11.410;2023-04-24T10:17:05;5.13;;;1.30;;
30370;SDS011;17164;48.590;11.410;2023-04-24T10:19:31;2.57;;;1.10;;
30370;SDS011;17164;48.590;11.410;2023-04-24T10:21:58;3.97;;;1.20;;
30370;SDS011;17164;48.590;11.410;2023-04-24T10:24:24;1.90;;;0.93;;
30370;SDS011;17164;48.590;11.410;2023-04-24T10:26:50;1.90;;;0.90;;
30370;SDS011;17164;48.590;11.410;2023-04-24T10:29:17;3.60;;;0.80;;
30370;SDS011;17164;48.590;11.410;2023-04-24T10:31:44;2.10;;;1.00;;
30370;SDS011;17164;48.590;11.410;2023-04-24T10:34:13;1.30;;;0.70;;
30370;SDS011;17164;48.590;11.410;2023-04-24T10:36:42;1.00;;;0.73;;
30370;SDS011;17164;48.590;11.410;2023-04-24T10:39:12;3.27;;;1.20;;
30370;SDS011;17164;48.590;11.410;2023-04-24T10:41:40;2.77;;;1.10;;
30370;SDS011;17164;48.590;11.410;2023-04-24T10:44:15;1.57;;;0.80;;
30370;SDS011;17164;48.590;11.410;2023-04-24T10:46:45;2.90;;;1.10;;
30370;SDS011;17164;48.590;11.410;2023-04-24T10:49:17;2.33;;;1.17;;
30370;SDS011;17164;48.590;11.410;2023-04-24T10:51:53;1.73;;;1.17;;
30370;SDS011;17164;48.590;11.410;2023-04-24T10:54:25;2.30;;;1.40;;
30370;SDS011;17164;48.590;11.410;2023-04-24T10:59:47;2.23;;;1.33;;
30370;SDS011;17164;48.590;11.410;2023-04-24T11:02:14;3.43;;;1.60;;
30370;SDS011;17164;48.590;11.410;2023-04-24T11:04:40;1.77;;;1.20;;
30370;SDS011;17164;48.590;11.410;2023-04-24T11:07:08;3.53;;;1.17;;
30370;SDS011;17164;48.590;11.410;2023-04-24T11:09:35;5.00;;;1.37;;
30370;SDS011;17164;48.590;11.410;2023-04-24T11:12:05;2.10;;;1.20;;
30370;SDS011;17164;48.590;11.410;2023-04-24T11:17:34;1.70;;;1.23;;
30370;SDS011;17164;48.590;11.410;2023-04-24T11:20:09;2.97;;;1.30;;
30370;SDS011;17164;48.590;11.410;2023-04-24T11:22:36;1.33;;;1.10;;
30370;SDS011;17164;48.590;11.410;2023-04-24T11:25:03;1.87;;;0.90;;
30370;SDS011;17164;48.590;11.410;2023-04-24T11:27:40;3.27;;;1.20;;
30370;SDS011;17164;48.590;11.410;2023-04-24T11:30:09;2.13;;;1.10;;
30370;SDS011;17164;48.590;11.410;2023-04-24T11:32:39;2.77;;;0.90;;
30370;SDS011;17164;48.590;11.410;2023-04-24T11:35:16;1.40;;;1.00;;
30370;SDS011;17164;48.590;11.410;2023-04-24T11:37:44;1.07;;;0.90;;
30370;SDS011;17164;48.590;11.410;2023-04-24T11:40:11;2.93;;;0.97;;
30370;SDS011;17164;48.590;11.410;2023-04-24T11:42:41;1.30;;;1.00;;
30370;SDS011;17164;48.590;11.410;2023-04-24T11:45:15;5.30;;;1.47;;
30370;SDS011;17164;48.590;11.410;2023-04-24T11:47:46;1.10;;;0.80;;
30370;SDS011;17164;48.590;11.410;2023-04-24T11:50:12;1.30;;;0.90;;
30370;SDS011;17164;48.590;11.410;2023-04-24T11:52:40;3.10;;;0.97;;
30370;SDS011;17164;48.590;11.410;2023-04-24T11:55:09;1.50;;;1.10;;
30370;SDS011;17164;48.590;11.410;2023-04-24T11:57:51;4.03;;;0.70;;
30370;SDS011;17164;48.590;11.410;2023-04-24T12:00:20;1.53;;;0.80;;
30370;SDS011;17164;48.590;11.410;2023-04-24T12:02:51;1.33;;;0.70;;
30370;SDS011;17164;48.590;11.410;2023-04-24T12:05:28;6.57;;;0.90;;
30370;SDS011;17164;48.590;11.410;2023-04-24T12:07:56;1.97;;;0.70;;
30370;SDS011;17164;48.590;11.410;2023-04-24T12:10:22;2.93;;;0.83;;
30370;SDS011;17164;48.590;11.410;2023-04-24T12:12:50;1.97;;;0.93;;
30370;SDS011;17164;48.590;11.410;2023-04-24T12:15:16;1.00;;;0.67;;
30370;SDS011;17164;48.590;11.410;2023-04-24T12:17:44;2.33;;;0.90;;
30370;SDS011;17164;48.590;11.410;2023-04-24T12:20:10;1.57;;;0.90;;
30370;SDS011;17164;48.590;11.410;2023-04-24T12:22:46;3.27;;;0.80;;
30370;SDS011;17164;48.590;11.410;2023-04-24T12:25:15;1.10;;;0.70;;
30370;SDS011;17164;48.590;11.410;2023-04-24T12:27:46;2.03;;;0.80;;
30370;SDS011;17164;48.590;11.410;2023-04-24T12:30:16;1.33;;;0.70;;
30370;SDS011;17164;48.590;11.410;2023-04-24T12:32:46;3.13;;;0.70;;
30370;SDS011;17164;48.590;11.410;2023-04-24T12:35:12;1.63;;;0.93;;
30370;SDS011;17164;48.590;11.410;2023-04-24T12:37:43;2.20;;;0.60;;
30370;SDS011;17164;48.590;11.410;2023-04-24T12:40:09;3.23;;;0.90;;
30370;SDS011;17164;48.590;11.410;2023-04-24T12:42:58;2.73;;;0.73;;
30370;SDS011;17164;48.590;11.410;2023-04-24T12:45:22;2.07;;;1.23;;
30370;SDS011;17164;48.590;11.410;2023-04-24T12:47:50;1.03;;;0.60;;
30370;SDS011;17164;48.590;11.410;2023-04-24T12:50:15;1.83;;;0.80;;
30370;SDS011;17164;48.590;11.410;2023-04-24T12:52:42;1.07;;;0.67;;
30370;SDS011;17164;48.590;11.410;2023-04-24T12:55:08;1.87;;;0.70;;
30370;SDS011;17164;48.590;11.410;2023-04-24T12:57:34;1.70;;;0.90;;
30370;SDS011;17164;48.590;11.410;2023-04-24T13:00:02;2.27;;;0.70;;
30370;SDS011;17164;48.590;11.410;2023-04-24T13:02:29;3.40;;;1.03;;
30370;SDS011;17164;48.590;11.410;2023-04-24T13:04:58;1.87;;;1.00;;
30370;SDS011;17164;48.590;11.410;2023-04-24T13:07:24;5.67;;;0.93;;
30370;SDS011;17164;48.590;11.410;2023-04-24T13:09:51;1.50;;;0.90;;
30370;SDS011;17164;48.590;11.410;2023-04-24T13:12:17;1.10;;;0.60;;
30370;SDS011;17164;48.590;11.410;2023-04-24T13:14:43;1.07;;;0.80;;
30370;SDS011;17164;48.590;11.410;2023-04-24T13:17:10;4.30;;;1.10;;
30370;SDS011;17164;48.590;11.410;2023-04-24T13:19:37;4.03;;;0.87;;
30370;SDS011;17164;48.590;11.410;2023-04-24T13:22:03;1.27;;;0.70;;
30370;SDS011;17164;48.590;11.410;2023-04-24T13:24:30;2.87;;;1.00;;
30370;SDS011;17164;48.590;11.410;2023-04-24T13:26:56;2.47;;;1.00;;
30370;SDS011;17164;48.590;11.410;2023-04-24T13:29:22;1.57;;;0.70;;
30370;SDS011;17164;48.590;11.410;2023-04-24T13:31:49;2.70;;;0.77;;
30370;SDS011;17164;48.590;11.410;2023-04-24T13:34:16;0.83;;;0.70;;
30370;SDS011;17164;48.590;11.410;2023-04-24T13:36:42;5.77;;;1.00;;
30370;SDS011;17164;48.590;11.410;2023-04-24T13:39:07;1.60;;;0.80;;
30370;SDS011;17164;48.590;11.410;2023-04-24T13:41:33;1.87;;;1.00;;
30370;SDS011;17164;48.590;11.410;2023-04-24T13:44:00;1.33;;;0.60;;
30370;SDS011;17164;48.590;11.410;2023-04-24T13:46:26;1.13;;;0.57;;
30370;SDS011;17164;48.590;11.410;2023-04-24T13:48:51;1.13;;;0.67;;
30370;SDS011;17164;48.590;11.410;2023-04-24T13:51:17;1.00;;;0.60;;
30370;SDS011;17164;48.590;11.410;2023-04-24T13:53:43;1.17;;;0.60;;
30370;SDS011;17164;48.590;11.410;2023-04-24T13:56:08;1.07;;;0.50;;
30370;SDS011;17164;48.590;11.410;2023-04-24T13:58:34;0.93;;;0.50;;
30370;SDS011;17164;48.590;11.410;2023-04-24T14:01:03;0.77;;;0.40;;
30370;SDS011;17164;48.590;11.410;2023-04-24T14:03:29;1.00;;;0.50;;
30370;SDS011;17164;48.590;11.410;2023-04-24T14:05:55;1.10;;;0.60;;
30370;SDS011;17164;48.590;11.410;2023-04-24T14:08:21;1.40;;;0.90;;
30370;SDS011;17164;48.590;11.410;2023-04-24T14:10:47;1.07;;;0.60;;
30370;SDS011;17164;48.590;11.410;2023-04-24T14:13:12;1.70;;;0.70;;
30370;SDS011;17164;48.590;11.410;2023-04-24T14:15:38;1.30;;;0.77;;
30370;SDS011;17164;48.590;11.410;2023-04-24T14:18:04;1.43;;;0.70;;
30370;SDS011;17164;48.590;11.410;2023-04-24T14:20:30;1.63;;;0.60;;
30370;SDS011;17164;48.590;11.410;2023-04-24T14:22:56;1.97;;;0.70;;
30370;SDS011;17164;48.590;11.410;2023-04-24T14:25:24;3.70;;;0.60;;
30370;SDS011;17164;48.590;11.410;2023-04-24T14:27:49;1.00;;;0.60;;
30370;SDS011;17164;48.590;11.410;2023-04-24T14:30:15;0.50;;;0.50;;
30370;SDS011;17164;48.590;11.410;2023-04-24T14:32:41;1.33;;;0.77;;
30370;SDS011;17164;48.590;11.410;2023-04-24T14:35:07;1.33;;;0.50;;
30370;SDS011;17164;48.590;11.410;2023-04-24T14:37:33;5.23;;;0.73;;